Time;durP1;ratioP1;P1;durP2;ratioP2;P2;SDS_P1;SDS_P2;PMS_P1;PMS_P2;Temp;Humidity;BMP_temperature;BMP_pressure;BME280_temperature;BME280_humidity;BME280_pressure;Samples;Min_cycle;Max_cycle;Signal;HPM_P1;HPM_P2
2022/12/31 00:01:42;;;;;;;10.52;4.32;;;13.00;99.90;;;;;;4953448;28;38772;-80
2022/12/31 00:04:08;;;;;;;12.10;4.30;;;13.00;99.90;;;;;;4958822;28;39784;-80
2022/12/31 00:06:35;;;;;;;12.40;4.18;;;13.00;99.90;;;;;;4959833;28;38168;-81
2022/12/31 00:09:05;;;;;;;7.63;4.35;;;13.00;99.90;;;;;;4957660;28;38169;-80
2022/12/31 00:11:33;;;;;;;8.40;4.10;;;13.00;99.90;;;;;;4952838;28;47089;-81
2022/12/31 00:14:00;;;;;;;13.98;4.93;;;13.00;99.90;;;;;;4939109;28;38722;-81
2022/12/31 00:16:31;;;;;;;11.73;4.05;;;13.00;99.90;;;;;;4954437;28;38459;-81
2022/12/31 00:18:58;;;;;;;10.75;3.60;;;13.00;99.90;;;;;;4956689;28;38339;-81
2022/12/31 00:21:26;;;;;;;14.70;3.80;;;13.00;99.90;;;;;;4957479;28;39926;-81
2022/12/31 00:23:52;;;;;;;11.05;3.60;;;13.00;99.90;;;;;;4958303;28;39171;-81
2022/12/31 00:26:30;;;;;;;9.75;3.22;;;13.00;99.90;;;;;;4940154;28;37725;-81
2022/12/31 00:28:58;;;;;;;6.38;3.15;;;13.00;99.90;;;;;;4940435;28;35787;-81
2022/12/31 00:31:25;;;;;;;12.15;2.55;;;13.00;99.90;;;;;;4927974;28;37970;-81
2022/12/31 00:33:51;;;;;;;12.30;3.08;;;13.00;99.90;;;;;;4953449;28;37905;-81
2022/12/31 00:36:23;;;;;;;6.13;1.98;;;13.00;99.90;;;;;;4956235;28;38717;-80
2022/12/31 00:38:51;;;;;;;12.07;2.47;;;13.00;99.90;;;;;;4954338;28;38394;-82
2022/12/31 00:41:18;;;;;;;7.40;2.25;;;13.00;99.90;;;;;;4953569;28;39828;-81
2022/12/31 00:43:45;;;;;;;6.75;2.15;;;13.00;99.90;;;;;;4937380;28;38463;-81
2022/12/31 00:46:11;;;;;;;9.52;2.03;;;13.00;99.90;;;;;;4955636;28;38883;-81
2022/12/31 00:48:40;;;;;;;6.75;1.85;;;12.90;99.90;;;;;;4954663;28;37100;-81
2022/12/31 00:51:12;;;;;;;8.30;2.22;;;12.90;99.90;;;;;;4937953;28;37834;-80
2022/12/31 00:53:38;;;;;;;9.98;2.13;;;12.90;99.90;;;;;;4954015;28;38504;-81
2022/12/31 00:56:08;;;;;;;9.70;2.72;;;12.90;99.90;;;;;;4953289;28;38787;-78
2022/12/31 00:58:35;;;;;;;10.10;2.42;;;12.90;99.90;;;;;;4935217;28;37736;-82
2022/12/31 01:01:15;;;;;;;10.48;1.90;;;12.90;99.90;;;;;;4937730;28;39291;-81
2022/12/31 01:03:42;;;;;;;17.35;2.58;;;12.80;99.90;;;;;;4950519;28;48769;-81
2022/12/31 01:06:08;;;;;;;10.30;2.05;;;12.80;99.90;;;;;;4949850;28;38719;-81
2022/12/31 01:08:35;;;;;;;7.32;1.88;;;12.80;99.90;;;;;;4933640;28;36093;-81
2022/12/31 01:13:48;;;;;;;6.82;1.40;;;12.70;99.90;;;;;;4947547;28;48956;-81
2022/12/31 01:16:16;;;;;;;6.35;1.83;;;12.70;99.90;;;;;;4949684;28;38789;-82
2022/12/31 01:18:42;;;;;;;3.63;1.08;;;12.60;99.90;;;;;;4954986;28;37364;-81
2022/12/31 01:21:10;;;;;;;7.82;1.20;;;12.60;99.90;;;;;;4953727;28;38967;-80
2022/12/31 01:23:36;;;;;;;6.82;1.75;;;12.50;99.90;;;;;;4936640;28;38749;-81
2022/12/31 01:26:04;;;;;;;6.63;1.48;;;12.50;99.90;;;;;;4960231;28;38447;-81
2022/12/31 01:28:31;;;;;;;10.32;1.45;;;12.50;99.90;;;;;;4939445;28;47038;-81
2022/12/31 01:30:58;;;;;;;7.97;1.35;;;12.50;99.90;;;;;;4942073;28;38012;-80
2022/12/31 01:33:24;;;;;;;10.00;1.42;;;12.40;99.90;;;;;;4956151;28;38414;-80
2022/12/31 01:35:50;;;;;;;7.68;1.42;;;12.40;99.90;;;;;;4960215;28;39537;-80
2022/12/31 01:38:16;;;;;;;8.50;1.77;;;12.40;99.90;;;;;;4963140;28;39108;-81
2022/12/31 01:40:42;;;;;;;10.63;1.70;;;12.30;99.90;;;;;;4955970;28;39310;-81
2022/12/31 01:43:19;;;;;;;7.20;1.60;;;12.40;99.90;;;;;;4962431;28;39267;-80
2022/12/31 01:45:47;;;;;;;7.95;1.55;;;12.30;99.90;;;;;;4958059;28;38764;-81
2022/12/31 01:48:19;;;;;;;8.88;1.55;;;12.30;99.90;;;;;;4955866;28;37498;-81
2022/12/31 01:50:47;;;;;;;9.02;1.48;;;12.30;99.90;;;;;;4939026;28;39050;-81
2022/12/31 01:53:16;;;;;;;8.80;2.05;;;12.20;99.90;;;;;;4938606;28;39928;-80
2022/12/31 01:55:55;;;;;;;5.53;1.27;;;12.20;99.90;;;;;;4947883;28;37172;-80
2022/12/31 01:58:36;;;;;;;9.45;1.50;;;12.20;99.90;;;;;;4938322;28;35990;-80
2022/12/31 02:03:39;;;;;;;7.60;1.98;;;12.10;99.90;;;;;;4944367;23;21505;-77
2022/12/31 02:06:15;;;;;;;5.72;1.33;;;12.10;99.90;;;;;;4913678;28;38834;-77
2022/12/31 02:08:42;;;;;;;6.00;1.15;;;12.10;99.90;;;;;;4928276;28;38144;-77
2022/12/31 02:11:22;;;;;;;8.15;1.30;;;12.10;99.90;;;;;;4916898;28;38998;-77
2022/12/31 02:13:48;;;;;;;6.55;1.25;;;12.10;99.90;;;;;;4935395;28;38108;-76
2022/12/31 02:16:26;;;;;;;5.10;1.13;;;12.10;99.90;;;;;;4917850;29;36985;-77
2022/12/31 02:19:09;;;;;;;10.40;1.40;;;12.00;99.90;;;;;;4929679;28;36971;-76
2022/12/31 02:21:50;;;;;;;10.65;1.30;;;12.00;99.90;;;;;;4915163;28;47022;-76
2022/12/31 02:24:50;;;;;;;6.63;1.00;;;12.00;99.90;;;;;;4929283;28;38904;-76
2022/12/31 02:27:51;;;;;;;5.63;0.77;;;12.00;99.90;;;;;;4927190;28;37484;-77
2022/12/31 02:30:18;;;;;;;7.05;1.17;;;12.00;99.90;;;;;;4915033;28;36861;-77
2022/12/31 02:33:27;;;;;;;5.47;1.10;;;11.90;99.90;;;;;;4935385;28;38627;-77
2022/12/31 02:36:01;;;;;;;8.30;1.20;;;11.90;99.90;;;;;;4863952;28;45403;-77
2022/12/31 02:38:31;;;;;;;12.25;1.58;;;11.80;99.90;;;;;;4919765;28;37283;-77
2022/12/31 02:40:58;;;;;;;9.23;1.20;;;11.80;99.90;;;;;;4938728;28;35526;-76
2022/12/31 02:43:24;;;;;;;5.30;1.50;;;11.80;99.90;;;;;;4921838;29;39638;-77
2022/12/31 02:46:03;;;;;;;5.15;0.80;;;11.80;99.90;;;;;;4938146;28;39123;-77
2022/12/31 02:48:53;;;;;;;10.55;1.00;;;11.70;99.90;;;;;;4931985;28;38469;-76
2022/12/31 02:51:51;;;;;;;8.17;1.03;;;11.70;99.90;;;;;;4933516;28;38132;-77
2022/12/31 02:54:31;;;;;;;7.20;1.20;;;11.70;99.90;;;;;;4880407;28;39111;-77
2022/12/31 02:57:13;;;;;;;13.77;1.50;;;11.70;99.90;;;;;;4935571;28;38996;-76
2022/12/31 03:02:44;;;;;;;10.48;0.93;;;11.60;99.90;;;;;;4929954;28;49373;-77
2022/12/31 03:05:13;;;;;;;9.82;1.20;;;11.60;99.90;;;;;;4920638;28;38965;-77
2022/12/31 03:07:42;;;;;;;8.35;1.77;;;11.60;99.90;;;;;;4914316;28;20056;-77
2022/12/31 03:10:09;;;;;;;8.57;0.90;;;11.50;99.90;;;;;;4915578;28;38662;-77
2022/12/31 03:12:47;;;;;;;12.10;1.73;;;11.50;99.90;;;;;;4931553;28;37384;-77
2022/12/31 03:15:20;;;;;;;7.20;1.10;;;11.50;99.90;;;;;;4930114;28;38435;-77
2022/12/31 03:18:03;;;;;;;7.30;1.17;;;11.50;99.90;;;;;;4926326;28;39115;-76
2022/12/31 03:23:31;;;;;;;9.30;1.47;;;11.50;99.90;;;;;;4931927;28;38104;-77
2022/12/31 03:25:59;;;;;;;11.00;1.03;;;11.40;99.90;;;;;;4913705;29;37352;-77
2022/12/31 03:28:27;;;;;;;8.23;0.90;;;11.40;99.90;;;;;;4931342;28;37182;-77
2022/12/31 03:30:59;;;;;;;8.87;1.33;;;11.40;99.90;;;;;;4930106;28;39482;-77
2022/12/31 03:33:30;;;;;;;9.23;1.35;;;11.40;99.90;;;;;;4933927;28;37328;-77
2022/12/31 03:35:56;;;;;;;10.37;1.13;;;11.40;99.90;;;;;;4932551;28;38574;-77
2022/12/31 03:38:23;;;;;;;6.87;1.83;;;11.40;99.90;;;;;;4930642;28;38988;-76
2022/12/31 03:40:51;;;;;;;8.90;1.27;;;11.40;99.90;;;;;;4913101;28;40471;-77
2022/12/31 03:43:18;;;;;;;5.80;1.23;;;11.40;99.90;;;;;;4928236;28;36874;-77
2022/12/31 03:45:50;;;;;;;7.63;1.30;;;11.40;99.90;;;;;;4913784;29;37868;-76
2022/12/31 03:48:16;;;;;;;6.40;1.10;;;11.30;99.90;;;;;;4917439;29;39272;-76
2022/12/31 03:50:42;;;;;;;8.13;1.20;;;11.30;99.90;;;;;;4924278;28;38387;-77
2022/12/31 03:53:09;;;;;;;8.53;1.37;;;11.30;99.90;;;;;;4931063;28;35909;-76
2022/12/31 03:55:35;;;;;;;4.80;1.40;;;11.30;99.90;;;;;;4913126;29;37668;-77
2022/12/31 03:58:02;;;;;;;7.78;2.22;;;11.30;99.90;;;;;;4932672;28;37648;-76
2022/12/31 04:00:28;;;;;;;8.77;2.00;;;11.30;99.90;;;;;;4929545;28;47833;-76
2022/12/31 04:02:54;;;;;;;7.07;2.22;;;11.30;99.90;;;;;;4914871;28;36733;-76
2022/12/31 04:05:21;;;;;;;7.63;3.30;;;11.30;99.90;;;;;;4938766;28;38400;-76
2022/12/31 04:07:47;;;;;;;12.67;3.90;;;11.30;99.90;;;;;;4938581;28;38679;-76
2022/12/31 04:10:16;;;;;;;8.40;4.20;;;11.30;99.90;;;;;;4932948;28;37609;-76
2022/12/31 04:12:42;;;;;;;9.67;5.40;;;11.30;99.90;;;;;;4921283;28;36129;-77
2022/12/31 04:15:10;;;;;;;9.70;5.40;;;11.30;99.90;;;;;;4917580;28;37426;-75
2022/12/31 04:17:36;;;;;;;6.93;4.43;;;11.30;99.90;;;;;;4913240;29;38901;-77
2022/12/31 04:20:03;;;;;;;6.40;4.20;;;11.40;99.90;;;;;;4929857;28;39445;-76
2022/12/31 04:22:29;;;;;;;7.07;5.20;;;11.40;99.90;;;;;;4931454;28;38584;-77
2022/12/31 04:24:55;;;;;;;6.30;4.90;;;11.50;99.90;;;;;;4930433;28;38411;-77
2022/12/31 04:27:21;;;;;;;9.20;5.17;;;11.50;99.90;;;;;;4931440;28;38462;-76
2022/12/31 04:29:47;;;;;;;5.60;5.00;;;11.60;99.90;;;;;;4934003;28;38482;-76
2022/12/31 04:32:14;;;;;;;7.47;5.30;;;11.70;99.90;;;;;;4919984;29;36193;-76
2022/12/31 04:34:40;;;;;;;7.60;5.73;;;11.70;99.90;;;;;;4920964;29;37589;-77
2022/12/31 04:37:06;;;;;;;6.43;5.30;;;11.80;99.90;;;;;;4917236;28;37932;-77
2022/12/31 04:39:32;;;;;;;8.02;5.38;;;11.80;99.90;;;;;;4918591;29;37145;-76
2022/12/31 04:41:58;;;;;;;4.82;4.32;;;11.80;99.90;;;;;;4926905;28;37522;-76
2022/12/31 04:44:24;;;;;;;3.85;3.40;;;11.90;99.90;;;;;;4934314;28;39773;-77
2022/12/31 04:46:50;;;;;;;3.77;3.10;;;11.90;99.90;;;;;;4919253;29;37810;-77
2022/12/31 04:49:17;;;;;;;2.90;2.58;;;12.10;99.90;;;;;;4935331;28;38494;-77
2022/12/31 04:51:43;;;;;;;3.28;2.63;;;12.10;99.90;;;;;;4932193;28;35881;-77
2022/12/31 04:54:09;;;;;;;2.30;1.97;;;12.20;99.90;;;;;;4936463;28;37269;-77
2022/12/31 04:56:35;;;;;;;3.30;1.55;;;12.20;99.90;;;;;;4932223;28;38993;-77
2022/12/31 04:59:03;;;;;;;2.70;1.70;;;12.20;99.90;;;;;;4936877;28;37866;-77
2022/12/31 05:01:29;;;;;;;2.45;1.40;;;12.30;99.90;;;;;;4930949;28;36032;-76
2022/12/31 05:03:55;;;;;;;2.50;0.95;;;12.30;99.90;;;;;;4909534;29;38797;-77
2022/12/31 05:06:22;;;;;;;1.15;1.05;;;12.30;99.90;;;;;;4929150;28;39456;-76
2022/12/31 05:08:49;;;;;;;1.52;1.00;;;12.40;99.90;;;;;;4911701;29;37406;-76
2022/12/31 05:11:16;;;;;;;1.45;0.85;;;12.40;99.90;;;;;;4931949;28;37106;-77
2022/12/31 05:13:42;;;;;;;1.63;0.70;;;12.50;99.90;;;;;;4912054;29;38974;-76
2022/12/31 05:16:09;;;;;;;3.38;0.70;;;12.50;99.90;;;;;;4916134;29;37615;-76
2022/12/31 05:18:35;;;;;;;0.60;0.50;;;12.50;99.90;;;;;;4933189;28;38694;-76
2022/12/31 05:21:02;;;;;;;1.42;0.60;;;12.50;99.90;;;;;;4920758;28;37381;-76
2022/12/31 05:23:28;;;;;;;0.82;0.68;;;12.60;99.90;;;;;;4929901;28;38455;-76
2022/12/31 05:25:54;;;;;;;0.88;0.65;;;12.60;99.90;;;;;;4917996;28;38590;-76
2022/12/31 05:28:21;;;;;;;0.52;0.50;;;12.60;99.90;;;;;;4911489;28;37861;-76
2022/12/31 05:30:48;;;;;;;0.93;0.60;;;12.60;99.90;;;;;;4924843;28;36996;-76
2022/12/31 05:33:15;;;;;;;0.45;0.40;;;12.60;99.90;;;;;;4926657;28;40383;-76
2022/12/31 05:35:41;;;;;;;0.40;0.30;;;12.60;99.90;;;;;;4911274;28;37616;-76
2022/12/31 05:38:07;;;;;;;0.60;0.60;;;12.70;99.90;;;;;;4925591;28;37782;-76
2022/12/31 05:40:33;;;;;;;0.85;0.45;;;12.70;99.90;;;;;;4908072;29;35885;-76
2022/12/31 05:42:59;;;;;;;0.38;0.38;;;12.70;99.90;;;;;;4928995;28;38916;-76
2022/12/31 05:45:25;;;;;;;1.65;0.47;;;12.70;99.90;;;;;;4908032;28;37774;-76
2022/12/31 05:47:51;;;;;;;0.95;0.95;;;12.70;99.90;;;;;;4921120;28;37692;-75
2022/12/31 05:50:17;;;;;;;1.83;1.52;;;12.70;99.90;;;;;;4910615;29;37039;-76
2022/12/31 05:52:45;;;;;;;2.80;2.53;;;12.70;99.90;;;;;;4918977;28;38917;-76
2022/12/31 05:55:12;;;;;;;3.42;3.10;;;12.60;99.90;;;;;;4906686;28;37715;-76
2022/12/31 05:57:39;;;;;;;4.30;3.58;;;12.60;99.90;;;;;;4933092;28;35762;-76
2022/12/31 06:00:07;;;;;;;4.60;3.63;;;12.60;99.90;;;;;;4927643;28;37145;-76
2022/12/31 06:02:33;;;;;;;5.32;3.45;;;12.70;99.90;;;;;;4905700;28;45972;-76
2022/12/31 06:04:59;;;;;;;3.08;2.65;;;12.80;99.90;;;;;;4930164;28;39525;-76
2022/12/31 06:07:25;;;;;;;2.72;2.33;;;12.90;99.90;;;;;;4923592;28;38352;-75
2022/12/31 06:09:51;;;;;;;3.47;2.80;;;12.90;99.90;;;;;;4903405;29;36236;-76
2022/12/31 06:12:17;;;;;;;3.83;3.35;;;13.10;99.90;;;;;;4910227;29;37625;-76
2022/12/31 06:14:44;;;;;;;5.32;3.90;;;13.10;99.90;;;;;;4914682;28;38430;-76
2022/12/31 06:17:10;;;;;;;4.85;4.35;;;13.20;99.90;;;;;;4916337;28;38364;-76
2022/12/31 06:19:36;;;;;;;5.05;4.05;;;13.30;99.90;;;;;;4913780;29;36294;-75
2022/12/31 06:22:02;;;;;;;5.00;3.70;;;13.30;99.90;;;;;;4925756;28;38702;-76
2022/12/31 06:24:28;;;;;;;6.30;4.05;;;13.30;99.90;;;;;;4929572;28;38544;-76
2022/12/31 06:26:54;;;;;;;4.32;3.17;;;13.40;99.90;;;;;;4927528;28;39346;-76
2022/12/31 06:29:20;;;;;;;3.53;2.35;;;13.50;99.90;;;;;;4930900;28;37804;-76
2022/12/31 06:31:46;;;;;;;1.73;1.38;;;13.50;99.90;;;;;;4933151;28;39610;-76
2022/12/31 06:34:12;;;;;;;1.30;1.20;;;13.60;99.90;;;;;;4926595;28;39777;-74
2022/12/31 06:36:38;;;;;;;3.33;0.98;;;13.70;99.90;;;;;;4929681;28;38544;-75
2022/12/31 06:39:05;;;;;;;1.25;1.15;;;13.70;99.90;;;;;;4906029;28;35803;-75
2022/12/31 06:41:31;;;;;;;4.18;1.50;;;13.70;99.90;;;;;;4918606;28;39030;-75
2022/12/31 06:43:57;;;;;;;2.50;1.10;;;13.80;99.90;;;;;;4931595;28;38804;-75
2022/12/31 06:46:23;;;;;;;2.45;1.05;;;13.80;99.90;;;;;;4937423;28;38969;-75
2022/12/31 06:48:50;;;;;;;2.17;1.10;;;13.80;99.90;;;;;;4916163;29;37277;-75
2022/12/31 06:51:19;;;;;;;2.35;0.88;;;13.80;99.90;;;;;;4931458;28;39164;-75
2022/12/31 06:53:47;;;;;;;2.10;0.70;;;13.80;99.90;;;;;;4915667;28;38814;-75
2022/12/31 06:56:19;;;;;;;3.17;0.47;;;13.80;99.90;;;;;;4910843;29;37182;-75
2022/12/31 06:58:46;;;;;;;3.22;0.65;;;13.90;99.90;;;;;;4923364;28;36328;-75
2022/12/31 07:01:43;;;;;;;1.25;0.70;;;13.90;99.90;;;;;;4928238;28;36311;-75
2022/12/31 07:04:34;;;;;;;1.38;0.73;;;13.90;99.90;;;;;;4931267;28;38605;-75
2022/12/31 07:07:27;;;;;;;1.35;0.75;;;13.90;99.90;;;;;;4926884;28;39413;-75
2022/12/31 07:10:28;;;;;;;2.60;1.02;;;13.90;99.90;;;;;;4931855;28;47385;-75
2022/12/31 07:13:19;;;;;;;2.42;1.02;;;13.90;99.90;;;;;;4914538;29;47237;-75
2022/12/31 07:15:57;;;;;;;3.20;1.98;;;13.90;99.90;;;;;;4934606;28;47240;-76
2022/12/31 07:18:37;;;;;;;1.65;1.30;;;13.90;99.90;;;;;;4929714;28;38669;-75
2022/12/31 07:21:11;;;;;;;3.53;1.40;;;14.00;99.90;;;;;;4927629;28;37115;-75
2022/12/31 07:23:37;;;;;;;8.20;1.95;;;14.00;99.90;;;;;;4928137;28;48341;-75
2022/12/31 07:26:18;;;;;;;2.75;1.92;;;14.00;99.90;;;;;;4931637;28;39790;-75
2022/12/31 07:28:58;;;;;;;2.92;1.83;;;14.00;99.90;;;;;;4929686;28;49506;-76
2022/12/31 07:31:33;;;;;;;2.53;1.55;;;14.00;99.90;;;;;;4932287;28;36780;-76
2022/12/31 07:34:04;;;;;;;3.42;1.20;;;14.00;99.90;;;;;;4931204;28;38898;-75
2022/12/31 07:36:39;;;;;;;1.92;1.20;;;14.00;99.90;;;;;;4914762;29;47072;-75
2022/12/31 07:39:15;;;;;;;3.42;1.23;;;14.00;99.90;;;;;;4928910;28;37543;-75
2022/12/31 07:41:41;;;;;;;2.83;0.90;;;13.90;99.90;;;;;;4911773;28;37138;-75
2022/12/31 07:44:38;;;;;;;5.10;0.70;;;13.90;99.90;;;;;;4932516;28;39673;-75
2022/12/31 07:47:18;;;;;;;2.67;0.63;;;13.90;99.90;;;;;;4925209;28;37430;-75
2022/12/31 07:49:45;;;;;;;4.60;0.88;;;13.90;99.90;;;;;;4923250;28;37469;-76
2022/12/31 07:52:11;;;;;;;5.55;0.93;;;13.80;99.90;;;;;;4928347;28;36718;-75
2022/12/31 07:54:37;;;;;;;3.70;1.02;;;13.80;99.90;;;;;;4929458;28;38834;-75
2022/12/31 07:57:03;;;;;;;2.75;1.00;;;13.80;99.90;;;;;;4913062;29;37953;-76
2022/12/31 07:59:42;;;;;;;6.68;1.10;;;13.70;99.90;;;;;;4929184;28;39430;-75
2022/12/31 08:02:25;;;;;;;8.13;0.90;;;13.80;99.90;;;;;;4928459;28;37805;-76
2022/12/31 08:05:11;;;;;;;10.43;1.90;;;13.70;99.90;;;;;;4929368;28;39785;-76
2022/12/31 08:07:57;;;;;;;5.32;1.30;;;13.70;99.90;;;;;;4914300;28;48411;-75
2022/12/31 08:10:29;;;;;;;14.10;1.75;;;13.70;99.90;;;;;;4927051;28;37605;-76
2022/12/31 08:13:01;;;;;;;9.57;1.25;;;13.70;99.90;;;;;;4912051;29;36333;-76
2022/12/31 08:15:28;;;;;;;9.00;1.65;;;13.70;99.90;;;;;;4910999;29;38061;-75
2022/12/31 08:17:54;;;;;;;12.13;1.42;;;13.70;99.90;;;;;;4915916;28;38199;-76
2022/12/31 08:20:20;;;;;;;13.82;1.70;;;13.70;99.90;;;;;;4931467;28;37913;-76
2022/12/31 08:22:52;;;;;;;11.10;1.30;;;13.70;99.90;;;;;;4916509;29;36036;-75
2022/12/31 08:25:43;;;;;;;10.70;1.95;;;13.70;99.90;;;;;;4921365;29;38187;-80
2022/12/31 08:28:24;;;;;;;14.52;1.80;;;13.70;99.90;;;;;;4937518;28;37483;-78
2022/12/31 08:31:26;;;;;;;12.13;2.80;;;13.80;99.90;;;;;;4927263;29;37624;-79
2022/12/31 08:34:14;;;;;;;12.45;2.00;;;13.80;99.90;;;;;;4825582;29;46900;-80
2022/12/31 08:36:52;;;;;;;16.33;2.80;;;13.90;99.90;;;;;;4928188;29;48195;-79
2022/12/31 08:39:40;;;;;;;10.23;1.60;;;13.90;99.90;;;;;;4934412;29;38610;-80
2022/12/31 08:42:31;;;;;;;9.63;1.63;;;13.90;99.90;;;;;;4918934;29;37403;-79
2022/12/31 08:45:21;;;;;;;12.30;1.40;;;14.00;99.90;;;;;;4923399;29;35816;-80
2022/12/31 08:48:04;;;;;;;7.22;1.63;;;14.00;99.90;;;;;;4935792;28;48625;-78
2022/12/31 08:50:30;;;;;;;4.40;1.33;;;14.00;99.90;;;;;;4927294;28;47198;-78
2022/12/31 08:52:57;;;;;;;5.97;1.67;;;14.10;99.90;;;;;;4939544;28;39694;-79
2022/12/31 08:55:26;;;;;;;12.88;2.35;;;14.00;99.90;;;;;;4933242;28;36429;-78
2022/12/31 08:58:23;;;;;;;13.02;2.53;;;14.10;99.90;;;;;;4923275;29;38408;-79
2022/12/31 09:00:53;;;;;;;4.38;1.60;;;14.10;99.90;;;;;;4918651;28;46987;-79
2022/12/31 09:03:41;;;;;;;12.10;7.60;;;14.10;99.90;;;;;;4936866;28;37577;-79
2022/12/31 09:06:25;;;;;;;424.70;309.58;;;14.10;99.90;;;;;;4911204;29;37586;-79
2022/12/31 09:09:07;;;;;;;7.78;3.25;;;14.20;99.90;;;;;;4923344;29;38030;-80
2022/12/31 09:11:56;;;;;;;4.22;1.50;;;14.20;99.90;;;;;;4937634;28;48088;-79
2022/12/31 09:14:40;;;;;;;8.55;1.70;;;14.20;99.90;;;;;;4930238;28;38186;-80
2022/12/31 09:17:30;;;;;;;7.28;1.73;;;14.30;99.90;;;;;;4937680;28;36729;-78
2022/12/31 09:19:56;;;;;;;7.50;1.55;;;14.40;99.90;;;;;;4926372;28;38488;-78
2022/12/31 09:22:22;;;;;;;5.63;1.10;;;14.50;99.90;;;;;;4913066;29;37768;-78
2022/12/31 09:24:49;;;;;;;2.97;1.40;;;14.60;99.90;;;;;;4927548;28;37725;-78
2022/12/31 09:27:34;;;;;;;6.45;1.40;;;14.60;99.90;;;;;;4940593;28;38156;-81
2022/12/31 09:30:04;;;;;;;5.65;2.22;;;14.70;99.90;;;;;;4920061;29;39294;-79
2022/12/31 09:32:46;;;;;;;10.93;5.90;;;14.80;99.90;;;;;;4905250;29;46998;-78
2022/12/31 09:35:37;;;;;;;10.18;3.65;;;14.90;99.90;;;;;;4914799;29;37324;-79
2022/12/31 09:38:21;;;;;;;4.18;2.00;;;15.00;99.90;;;;;;4934500;28;37703;-78
2022/12/31 09:41:04;;;;;;;5.32;1.60;;;15.10;99.90;;;;;;4935635;28;39442;-79
2022/12/31 09:43:56;;;;;;;3.65;1.10;;;15.10;99.90;;;;;;4938120;28;48484;-79
2022/12/31 09:46:46;;;;;;;6.07;1.63;;;15.10;99.90;;;;;;4922730;29;39860;-81
2022/12/31 09:49:34;;;;;;;6.63;1.05;;;15.10;99.90;;;;;;4927070;28;35942;-80
2022/12/31 09:52:24;;;;;;;8.02;2.10;;;15.00;99.90;;;;;;4939479;28;37659;-80
2022/12/31 09:54:59;;;;;;;4.95;1.63;;;15.00;99.90;;;;;;4989906;23;48668;-77
2022/12/31 09:57:50;;;;;;;6.60;1.48;;;15.00;99.90;;;;;;4926639;28;37400;-78
2022/12/31 10:00:36;;;;;;;6.53;1.42;;;15.00;99.90;;;;;;4932484;28;36198;-79
2022/12/31 10:03:41;;;;;;;4.28;1.20;;;15.00;99.90;;;;;;4960896;23;39527;-77
2022/12/31 10:06:29;;;;;;;6.22;1.65;;;15.00;99.90;;;;;;4924765;28;47134;-77
2022/12/31 10:09:30;;;;;;;4.32;1.73;;;15.00;99.90;;;;;;4935206;28;39958;-81
2022/12/31 10:12:32;;;;;;;8.55;1.77;;;15.10;99.90;;;;;;4927498;28;47278;-78
2022/12/31 10:15:13;;;;;;;8.07;1.58;;;15.00;99.90;;;;;;4911517;29;47257;-78
2022/12/31 10:18:09;;;;;;;5.10;1.00;;;15.10;99.90;;;;;;4925020;28;47110;-77
2022/12/31 10:21:18;;;;;;;7.90;3.53;;;15.10;99.90;;;;;;4914863;29;46895;-78
2022/12/31 10:24:12;;;;;;;13.05;6.25;;;15.10;99.90;;;;;;4940008;28;47149;-80
2022/12/31 10:27:06;;;;;;;10.13;5.20;;;15.10;99.90;;;;;;4939219;28;46578;-79
2022/12/31 10:29:35;;;;;;;8.02;2.90;;;15.10;99.90;;;;;;4940688;28;47011;-79
2022/12/31 10:32:13;;;;;;;8.77;2.85;;;15.10;99.90;;;;;;4922533;28;36808;-78
2022/12/31 10:35:05;;;;;;;7.68;3.20;;;15.10;99.90;;;;;;4929390;28;48458;-78
2022/12/31 10:37:57;;;;;;;8.23;3.22;;;15.00;99.90;;;;;;4915956;28;46130;-79
2022/12/31 10:40:47;;;;;;;29.63;20.67;;;15.00;99.90;;;;;;4903060;29;38854;-78
2022/12/31 10:43:40;;;;;;;11.38;6.35;;;15.00;99.90;;;;;;4931028;28;39752;-78
2022/12/31 10:46:40;;;;;;;8.80;3.15;;;15.00;99.90;;;;;;4929032;28;38955;-78
2022/12/31 10:49:31;;;;;;;8.00;3.25;;;15.10;99.90;;;;;;4940502;28;37724;-79
2022/12/31 10:52:21;;;;;;;13.90;7.30;;;15.10;99.90;;;;;;4919266;28;39183;-78
2022/12/31 10:55:06;;;;;;;9.25;3.33;;;15.10;99.90;;;;;;4927260;28;46997;-78
2022/12/31 10:57:50;;;;;;;9.32;3.70;;;15.10;99.90;;;;;;4912227;29;46968;-80
2022/12/31 11:00:21;;;;;;;12.60;7.10;;;15.20;99.90;;;;;;4916182;28;39077;-77
2022/12/31 11:02:50;;;;;;;6.32;3.55;;;15.20;99.90;;;;;;4915240;29;40702;-77
2022/12/31 11:05:37;;;;;;;8.55;3.85;;;15.20;99.90;;;;;;4934993;28;38630;-77
2022/12/31 11:08:41;;;;;;;12.93;4.20;;;15.20;99.90;;;;;;4940343;28;36860;-76
2022/12/31 11:11:32;;;;;;;11.93;3.85;;;15.20;99.90;;;;;;4928749;28;38006;-76
2022/12/31 11:14:01;;;;;;;5.88;2.38;;;15.20;99.90;;;;;;4936748;28;37861;-78
2022/12/31 11:16:47;;;;;;;23.42;19.70;;;15.30;99.90;;;;;;4932380;28;36502;-78
2022/12/31 11:19:18;;;;;;;13.75;7.00;;;15.30;99.90;;;;;;4937025;28;35768;-78
2022/12/31 11:22:05;;;;;;;20.67;13.93;;;15.20;99.90;;;;;;4936470;28;38405;-78
2022/12/31 11:25:09;;;;;;;16.70;8.80;;;15.20;99.90;;;;;;4934597;28;47056;-78
2022/12/31 11:28:05;;;;;;;12.68;3.17;;;15.20;99.90;;;;;;4934868;29;48118;-78
2022/12/31 11:30:54;;;;;;;10.85;4.03;;;15.20;99.90;;;;;;4934998;29;47100;-78
2022/12/31 11:33:42;;;;;;;7.25;3.25;;;15.30;99.90;;;;;;4938272;28;39039;-77
2022/12/31 11:36:51;;;;;;;8.82;2.33;;;15.30;99.90;;;;;;4940845;28;38584;-79
2022/12/31 11:39:26;;;;;;;11.27;3.08;;;15.30;99.90;;;;;;4940864;28;39377;-79
2022/12/31 11:41:56;;;;;;;13.98;3.38;;;15.40;99.90;;;;;;4936791;28;38729;-79
2022/12/31 11:44:43;;;;;;;8.43;1.83;;;15.40;99.90;;;;;;4911552;28;37767;-77
2022/12/31 11:47:24;;;;;;;6.95;2.90;;;15.40;99.90;;;;;;4926505;28;39027;-79
2022/12/31 11:49:56;;;;;;;6.60;1.85;;;15.50;99.90;;;;;;4933866;29;38476;-78
2022/12/31 11:52:43;;;;;;;8.10;1.80;;;15.40;99.90;;;;;;4908486;28;35896;-78
2022/12/31 11:55:44;;;;;;;10.10;2.17;;;15.40;99.90;;;;;;4930072;28;38898;-78
2022/12/31 11:58:19;;;;;;;13.77;2.33;;;15.40;99.90;;;;;;4898696;29;38788;-78
2022/12/31 12:00:56;;;;;;;7.85;2.65;;;15.40;99.90;;;;;;4916206;28;37551;-78
2022/12/31 12:03:23;;;;;;;8.50;3.03;;;15.30;99.90;;;;;;4930869;28;35797;-79
2022/12/31 12:05:49;;;;;;;12.40;2.85;;;15.30;99.90;;;;;;4930898;28;38707;-77
2022/12/31 12:08:16;;;;;;;12.07;3.55;;;15.30;99.90;;;;;;4928678;28;38037;-77
2022/12/31 12:11:11;;;;;;;5.90;1.95;;;15.30;99.90;;;;;;4934697;28;38657;-77
2022/12/31 12:13:37;;;;;;;7.03;1.70;;;15.40;99.90;;;;;;4884935;29;47212;-77
2022/12/31 12:16:06;;;;;;;8.27;2.97;;;15.40;99.90;;;;;;4915594;28;39087;-78
2022/12/31 12:18:41;;;;;;;6.43;1.60;;;15.40;99.90;;;;;;4929065;28;47067;-78
2022/12/31 12:21:13;;;;;;;11.00;2.75;;;15.40;99.90;;;;;;4917710;29;37435;-77
2022/12/31 12:23:39;;;;;;;20.92;10.82;;;15.40;99.90;;;;;;4933422;28;37376;-77
2022/12/31 12:26:24;;;;;;;7.03;2.40;;;15.30;99.90;;;;;;4931443;28;38144;-77
2022/12/31 12:28:50;;;;;;;8.13;3.35;;;15.40;99.90;;;;;;4929449;28;38714;-77
2022/12/31 12:31:21;;;;;;;11.18;2.88;;;15.30;99.90;;;;;;4932938;28;37588;-77
2022/12/31 12:33:50;;;;;;;11.57;2.95;;;15.40;99.90;;;;;;4949012;28;36171;-77
2022/12/31 12:36:18;;;;;;;16.35;3.70;;;15.40;99.90;;;;;;4919700;28;39115;-78
2022/12/31 12:38:44;;;;;;;6.43;3.33;;;15.40;99.90;;;;;;4921737;28;37686;-77
2022/12/31 12:41:23;;;;;;;19.70;11.43;;;15.40;99.90;;;;;;4916655;28;38446;-77
2022/12/31 12:44:05;;;;;;;9.77;2.45;;;15.40;99.90;;;;;;4917300;29;36094;-79
2022/12/31 12:46:43;;;;;;;6.75;1.63;;;15.40;99.90;;;;;;4933912;28;46650;-79
2022/12/31 12:49:25;;;;;;;11.15;3.75;;;15.40;99.90;;;;;;4910391;29;37996;-78
2022/12/31 12:52:05;;;;;;;14.57;8.82;;;15.40;99.90;;;;;;4933359;28;37453;-77
2022/12/31 12:55:00;;;;;;;7.78;2.20;;;15.30;99.90;;;;;;4936945;28;48990;-77
2022/12/31 12:57:45;;;;;;;6.00;2.33;;;15.30;99.90;;;;;;4935396;28;39096;-79
2022/12/31 13:00:18;;;;;;;10.02;4.70;;;15.30;99.90;;;;;;4937119;28;38483;-78
2022/12/31 13:02:53;;;;;;;7.80;3.92;;;15.20;99.90;;;;;;4936008;28;49127;-79
2022/12/31 13:05:29;;;;;;;11.32;4.22;;;15.20;99.90;;;;;;4930455;28;38422;-79
2022/12/31 13:08:24;;;;;;;13.48;6.55;;;15.20;99.90;;;;;;4932720;28;39565;-78
2022/12/31 13:11:10;;;;;;;9.45;4.15;;;15.20;99.90;;;;;;4878329;28;46954;-77
2022/12/31 13:13:43;;;;;;;10.73;2.90;;;15.20;99.90;;;;;;4909967;28;47111;-78
2022/12/31 13:16:26;;;;;;;9.52;4.05;;;15.20;99.90;;;;;;4927369;29;37187;-77
2022/12/31 13:19:23;;;;;;;16.02;4.93;;;15.10;99.90;;;;;;4930758;28;38570;-79
2022/12/31 13:21:56;;;;;;;9.65;3.08;;;15.10;99.90;;;;;;4926216;28;48559;-79
2022/12/31 13:24:50;;;;;;;13.18;3.50;;;15.10;99.90;;;;;;4925005;28;37662;-79
2022/12/31 13:27:33;;;;;;;8.45;2.83;;;15.10;99.90;;;;;;4932629;28;37426;-79
2022/12/31 13:30:00;;;;;;;;;;;15.10;99.90;;;;;;4915826;28;37595;-78
2022/12/31 13:32:46;;;;;;;14.70;5.13;;;15.10;99.90;;;;;;4913726;28;38048;-78
2022/12/31 13:35:29;;;;;;;20.35;12.80;;;15.10;99.90;;;;;;4924077;28;40287;-77
2022/12/31 13:37:58;;;;;;;;;;;15.10;99.90;;;;;;4915083;29;37240;-79